sensor_id;sensor_type;location;lat;lon;timestamp;pressure;altitude;pressure_sealevel;temperature;humidity
20622;BME280;10470;42.670;23.354;2023-05-10T00:01:58;95021.03;;;10.04;100.00
20622;BME280;10470;42.670;23.354;2023-05-10T00:04:43;95020.03;;;10.11;100.00
20622;BME280;10470;42.670;23.354;2023-05-10T00:07:29;95023.09;;;10.00;100.00
20622;BME280;10470;42.670;23.354;2023-05-10T00:10:14;95021.13;;;9.88;100.00
20622;BME280;10470;42.670;23.354;2023-05-10T00:13:00;95023.50;;;10.12;100.00
20622;BME280;10470;42.670;23.354;2023-05-10T00:15:45;95016.13;;;10.12;100.00
20622;BME280;10470;42.670;23.354;2023-05-10T00:18:31;95016.13;;;9.99;100.00
20622;BME280;10470;42.670;23.354;2023-05-10T00:21:16;95009.16;;;9.98;100.00
20622;BME280;10470;42.670;23.354;2023-05-10T00:23:57;95013.97;;;9.94;100.00
20622;BME280;10470;42.670;23.354;2023-05-10T00:26:43;95004.94;;;9.84;100.00
20622;BME280;10470;42.670;23.354;2023-05-10T00:29:28;95007.63;;;9.97;100.00
20622;BME280;10470;42.670;23.354;2023-05-10T00:32:13;95021.13;;;9.88;100.00
20622;BME280;10470;42.670;23.354;2023-05-10T00:34:59;95006.69;;;9.91;100.00
20622;BME280;10470;42.670;23.354;2023-05-10T00:37:44;95008.19;;;9.92;100.00
20622;BME280;10470;42.670;23.354;2023-05-10T00:40:30;95017.22;;;9.89;100.00
20622;BME280;10470;42.670;23.354;2023-05-10T00:43:15;95001.84;;;9.95;100.00
20622;BME280;10470;42.670;23.354;2023-05-10T00:45:51;95004.81;;;9.88;100.00
20622;BME280;10470;42.670;23.354;2023-05-10T00:48:36;94999.69;;;9.77;100.00
20622;BME280;10470;42.670;23.354;2023-05-10T00:51:22;94997.72;;;9.91;100.00
20622;BME280;10470;42.670;23.354;2023-05-10T00:54:07;94995.00;;;9.78;100.00
20622;BME280;10470;42.670;23.354;2023-05-10T00:56:53;95000.16;;;9.89;100.00
20622;BME280;10470;42.670;23.354;2023-05-10T00:59:38;95008.53;;;9.81;100.00
20622;BME280;10470;42.670;23.354;2023-05-10T01:02:24;95010.16;;;9.79;100.00
20622;BME280;10470;42.670;23.354;2023-05-10T01:05:09;95001.78;;;9.73;100.00
20622;BME280;10470;42.670;23.354;2023-05-10T01:07:44;95005.16;;;9.65;100.00
20622;BME280;10470;42.670;23.354;2023-05-10T01:10:30;94998.31;;;9.73;100.00
20622;BME280;10470;42.670;23.354;2023-05-10T01:16:13;95005.06;;;9.68;100.00
20622;BME280;10470;42.670;23.354;2023-05-10T01:18:58;95000.38;;;9.69;100.00
20622;BME280;10470;42.670;23.354;2023-05-10T01:31:52;94989.38;;;9.59;100.00
20622;BME280;10470;42.670;23.354;2023-05-10T01:35:13;94971.75;;;9.51;100.00
20622;BME280;10470;42.670;23.354;2023-05-10T01:38:16;94985.25;;;9.42;100.00
20622;BME280;10470;42.670;23.354;2023-05-10T01:41:16;94989.16;;;9.41;100.00
20622;BME280;10470;42.670;23.354;2023-05-10T01:44:20;94984.38;;;9.45;100.00
20622;BME280;10470;42.670;23.354;2023-05-10T01:47:10;94982.41;;;9.58;100.00
20622;BME280;10470;42.670;23.354;2023-05-10T01:50:01;94985.00;;;9.49;100.00
20622;BME280;10470;42.670;23.354;2023-05-10T01:52:53;94983.63;;;9.45;100.00
20622;BME280;10470;42.670;23.354;2023-05-10T01:55:47;94969.56;;;9.33;100.00
20622;BME280;10470;42.670;23.354;2023-05-10T01:58:34;94987.44;;;9.60;100.00
20622;BME280;10470;42.670;23.354;2023-05-10T02:01:21;94986.09;;;9.39;100.00
20622;BME280;10470;42.670;23.354;2023-05-10T02:04:08;94984.38;;;9.32;100.00
20622;BME280;10470;42.670;23.354;2023-05-10T02:06:56;94979.34;;;9.18;100.00
20622;BME280;10470;42.670;23.354;2023-05-10T02:09:44;94990.69;;;9.29;100.00
20622;BME280;10470;42.670;23.354;2023-05-10T02:12:36;94982.69;;;9.09;100.00
20622;BME280;10470;42.670;23.354;2023-05-10T02:15:23;95005.09;;;9.01;100.00
20622;BME280;10470;42.670;23.354;2023-05-10T02:18:10;95010.41;;;9.04;100.00
20622;BME280;10470;42.670;23.354;2023-05-10T02:20:57;95016.91;;;8.94;100.00
20622;BME280;10470;42.670;23.354;2023-05-10T02:23:44;95011.31;;;8.72;100.00
20622;BME280;10470;42.670;23.354;2023-05-10T02:26:31;95005.94;;;8.85;100.00
20622;BME280;10470;42.670;23.354;2023-05-10T02:29:18;95007.00;;;8.58;100.00
20622;BME280;10470;42.670;23.354;2023-05-10T02:32:04;95022.53;;;8.58;100.00
20622;BME280;10470;42.670;23.354;2023-05-10T02:34:52;95029.88;;;8.44;100.00
20622;BME280;10470;42.670;23.354;2023-05-10T02:37:32;95039.81;;;8.51;100.00
20622;BME280;10470;42.670;23.354;2023-05-10T02:40:19;95025.13;;;8.48;100.00
20622;BME280;10470;42.670;23.354;2023-05-10T02:43:09;95042.50;;;8.35;100.00
20622;BME280;10470;42.670;23.354;2023-05-10T02:45:57;95030.47;;;8.19;100.00
20622;BME280;10470;42.670;23.354;2023-05-10T02:48:42;95043.72;;;8.17;100.00
20622;BME280;10470;42.670;23.354;2023-05-10T02:51:30;95029.81;;;8.15;100.00
20622;BME280;10470;42.670;23.354;2023-05-10T02:54:21;95033.38;;;8.12;100.00
20622;BME280;10470;42.670;23.354;2023-05-10T02:57:11;95029.13;;;8.11;100.00
20622;BME280;10470;42.670;23.354;2023-05-10T03:00:01;95031.31;;;8.16;100.00
20622;BME280;10470;42.670;23.354;2023-05-10T03:02:48;95030.22;;;7.97;100.00
20622;BME280;10470;42.670;23.354;2023-05-10T03:05:33;95028.94;;;8.18;100.00
20622;BME280;10470;42.670;23.354;2023-05-10T03:08:19;95046.00;;;8.19;100.00
20622;BME280;10470;42.670;23.354;2023-05-10T03:16:47;95042.50;;;8.18;100.00
20622;BME280;10470;42.670;23.354;2023-05-10T03:19:53;95047.59;;;8.16;100.00
20622;BME280;10470;42.670;23.354;2023-05-10T03:22:47;95039.22;;;8.43;100.00
20622;BME280;10470;42.670;23.354;2023-05-10T03:25:33;95047.56;;;8.32;100.00
20622;BME280;10470;42.670;23.354;2023-05-10T03:28:20;95044.22;;;8.12;100.00
20622;BME280;10470;42.670;23.354;2023-05-10T03:31:06;95039.13;;;8.30;100.00
20622;BME280;10470;42.670;23.354;2023-05-10T03:33:52;95053.34;;;8.35;100.00
20622;BME280;10470;42.670;23.354;2023-05-10T03:36:38;95043.34;;;8.48;100.00
20622;BME280;10470;42.670;23.354;2023-05-10T03:39:23;95052.06;;;8.56;100.00
20622;BME280;10470;42.670;23.354;2023-05-10T03:42:09;95048.94;;;8.57;100.00
20622;BME280;10470;42.670;23.354;2023-05-10T03:44:57;95055.66;;;8.36;100.00
20622;BME280;10470;42.670;23.354;2023-05-10T03:47:42;95048.78;;;8.48;100.00
20622;BME280;10470;42.670;23.354;2023-05-10T03:50:27;95049.03;;;8.37;100.00
20622;BME280;10470;42.670;23.354;2023-05-10T03:53:13;95044.88;;;8.32;100.00
20622;BME280;10470;42.670;23.354;2023-05-10T03:55:58;95056.28;;;8.44;100.00
20622;BME280;10470;42.670;23.354;2023-05-10T03:58:44;95058.28;;;8.56;100.00
20622;BME280;10470;42.670;23.354;2023-05-10T04:01:29;95055.31;;;8.50;100.00
20622;BME280;10470;42.670;23.354;2023-05-10T04:04:15;95071.34;;;8.45;100.00
20622;BME280;10470;42.670;23.354;2023-05-10T04:06:55;95070.66;;;8.57;100.00
20622;BME280;10470;42.670;23.354;2023-05-10T04:09:41;95071.25;;;8.65;100.00
20622;BME280;10470;42.670;23.354;2023-05-10T04:12:26;95064.56;;;8.53;100.00
20622;BME280;10470;42.670;23.354;2023-05-10T04:15:11;95073.66;;;8.46;100.00
20622;BME280;10470;42.670;23.354;2023-05-10T04:17:57;95079.16;;;8.43;100.00
20622;BME280;10470;42.670;23.354;2023-05-10T04:20:42;95081.25;;;8.68;100.00
20622;BME280;10470;42.670;23.354;2023-05-10T04:23:28;95073.53;;;8.66;100.00
20622;BME280;10470;42.670;23.354;2023-05-10T04:26:13;95077.09;;;8.63;100.00
20622;BME280;10470;42.670;23.354;2023-05-10T04:28:59;95079.47;;;8.61;100.00
20622;BME280;10470;42.670;23.354;2023-05-10T04:31:44;95073.22;;;8.48;100.00
20622;BME280;10470;42.670;23.354;2023-05-10T04:34:30;95083.72;;;8.62;100.00
20622;BME280;10470;42.670;23.354;2023-05-10T04:37:15;95081.88;;;8.59;100.00
20622;BME280;10470;42.670;23.354;2023-05-10T04:40:01;95080.19;;;8.49;100.00
20622;BME280;10470;42.670;23.354;2023-05-10T04:42:47;95079.34;;;8.52;100.00
20622;BME280;10470;42.670;23.354;2023-05-10T04:45:28;95078.13;;;8.53;100.00
20622;BME280;10470;42.670;23.354;2023-05-10T04:48:14;95077.31;;;8.56;100.00
20622;BME280;10470;42.670;23.354;2023-05-10T04:50:59;95070.50;;;8.64;100.00
20622;BME280;10470;42.670;23.354;2023-05-10T04:53:45;95083.25;;;8.51;100.00
20622;BME280;10470;42.670;23.354;2023-05-10T04:56:30;95079.41;;;8.65;100.00
20622;BME280;10470;42.670;23.354;2023-05-10T04:59:03;95080.84;;;8.53;100.00
20622;BME280;10470;42.670;23.354;2023-05-10T05:01:49;95079.09;;;8.46;100.00
20622;BME280;10470;42.670;23.354;2023-05-10T05:04:34;95085.25;;;8.63;100.00
20622;BME280;10470;42.670;23.354;2023-05-10T05:07:19;95083.63;;;8.82;100.00
20622;BME280;10470;42.670;23.354;2023-05-10T05:10:06;95087.44;;;8.85;100.00
20622;BME280;10470;42.670;23.354;2023-05-10T05:12:37;95070.63;;;8.90;100.00
20622;BME280;10470;42.670;23.354;2023-05-10T05:15:22;95082.84;;;8.82;100.00
20622;BME280;10470;42.670;23.354;2023-05-10T05:18:08;95084.91;;;8.78;100.00
20622;BME280;10470;42.670;23.354;2023-05-10T05:20:54;95090.16;;;8.85;100.00
20622;BME280;10470;42.670;23.354;2023-05-10T05:23:39;95085.25;;;8.80;100.00
20622;BME280;10470;42.670;23.354;2023-05-10T05:26:13;95088.13;;;9.02;100.00
20622;BME280;10470;42.670;23.354;2023-05-10T05:29:00;95101.84;;;8.82;100.00
20622;BME280;10470;42.670;23.354;2023-05-10T05:31:45;95092.25;;;8.93;100.00
20622;BME280;10470;42.670;23.354;2023-05-10T05:34:30;95101.88;;;9.11;100.00
20622;BME280;10470;42.670;23.354;2023-05-10T05:37:17;95101.38;;;9.00;100.00
20622;BME280;10470;42.670;23.354;2023-05-10T05:40:03;95102.94;;;8.84;100.00
20622;BME280;10470;42.670;23.354;2023-05-10T05:42:49;95102.63;;;8.82;100.00
20622;BME280;10470;42.670;23.354;2023-05-10T05:45:34;95098.97;;;8.89;100.00
20622;BME280;10470;42.670;23.354;2023-05-10T05:48:20;95088.59;;;8.84;100.00
20622;BME280;10470;42.670;23.354;2023-05-10T05:50:55;95100.09;;;8.75;100.00
20622;BME280;10470;42.670;23.354;2023-05-10T05:53:44;95092.09;;;8.84;100.00
20622;BME280;10470;42.670;23.354;2023-05-10T05:56:30;95108.50;;;8.81;100.00
20622;BME280;10470;42.670;23.354;2023-05-10T05:59:15;95117.34;;;8.68;100.00
20622;BME280;10470;42.670;23.354;2023-05-10T06:02:01;95112.47;;;8.76;100.00
20622;BME280;10470;42.670;23.354;2023-05-10T06:04:34;95106.16;;;8.95;100.00
20622;BME280;10470;42.670;23.354;2023-05-10T06:07:19;95106.97;;;8.80;100.00
20622;BME280;10470;42.670;23.354;2023-05-10T06:10:06;95109.47;;;8.87;100.00
20622;BME280;10470;42.670;23.354;2023-05-10T06:12:51;95108.97;;;8.92;100.00
20622;BME280;10470;42.670;23.354;2023-05-10T06:15:38;95104.41;;;8.89;100.00
20622;BME280;10470;42.670;23.354;2023-05-10T06:18:09;95111.50;;;8.99;100.00
20622;BME280;10470;42.670;23.354;2023-05-10T06:20:55;95106.06;;;8.70;100.00
20622;BME280;10470;42.670;23.354;2023-05-10T06:23:40;95107.28;;;8.98;100.00
20622;BME280;10470;42.670;23.354;2023-05-10T06:26:26;95119.56;;;9.03;100.00
20622;BME280;10470;42.670;23.354;2023-05-10T06:29:11;95111.88;;;8.85;100.00
20622;BME280;10470;42.670;23.354;2023-05-10T06:31:48;95117.47;;;8.94;100.00
20622;BME280;10470;42.670;23.354;2023-05-10T06:34:34;95118.09;;;9.14;100.00
20622;BME280;10470;42.670;23.354;2023-05-10T06:37:19;95122.09;;;9.10;100.00
20622;BME280;10470;42.670;23.354;2023-05-10T06:40:06;95115.72;;;9.00;100.00
20622;BME280;10470;42.670;23.354;2023-05-10T06:42:51;95110.88;;;9.08;100.00
20622;BME280;10470;42.670;23.354;2023-05-10T06:45:27;95117.56;;;9.19;100.00
20622;BME280;10470;42.670;23.354;2023-05-10T06:48:12;95108.66;;;9.19;100.00
20622;BME280;10470;42.670;23.354;2023-05-10T06:50:58;95102.00;;;9.20;100.00
20622;BME280;10470;42.670;23.354;2023-05-10T06:53:43;95118.44;;;9.16;100.00
20622;BME280;10470;42.670;23.354;2023-05-10T06:56:29;95123.16;;;9.29;100.00
20622;BME280;10470;42.670;23.354;2023-05-10T06:59:09;95123.47;;;9.31;100.00
20622;BME280;10470;42.670;23.354;2023-05-10T07:01:54;95129.72;;;9.15;100.00
20622;BME280;10470;42.670;23.354;2023-05-10T07:04:40;95123.00;;;9.19;100.00
20622;BME280;10470;42.670;23.354;2023-05-10T07:07:25;95139.03;;;9.30;100.00
20622;BME280;10470;42.670;23.354;2023-05-10T07:10:11;95118.28;;;9.07;100.00
20622;BME280;10470;42.670;23.354;2023-05-10T07:12:52;95135.50;;;9.17;100.00
20622;BME280;10470;42.670;23.354;2023-05-10T07:15:22;95143.19;;;9.35;100.00
20622;BME280;10470;42.670;23.354;2023-05-10T07:18:08;95139.59;;;9.09;100.00
20622;BME280;10470;42.670;23.354;2023-05-10T07:20:53;95145.63;;;9.16;100.00
20622;BME280;10470;42.670;23.354;2023-05-10T07:23:39;95140.25;;;9.13;100.00
20622;BME280;10470;42.670;23.354;2023-05-10T07:26:24;95142.84;;;9.33;100.00
20622;BME280;10470;42.670;23.354;2023-05-10T07:29:10;95161.22;;;9.29;100.00
20622;BME280;10470;42.670;23.354;2023-05-10T07:31:56;95149.25;;;9.26;100.00
20622;BME280;10470;42.670;23.354;2023-05-10T07:34:41;95167.31;;;9.33;100.00
20622;BME280;10470;42.670;23.354;2023-05-10T07:37:27;95160.31;;;9.19;100.00
20622;BME280;10470;42.670;23.354;2023-05-10T07:40:12;95163.94;;;9.29;100.00
20622;BME280;10470;42.670;23.354;2023-05-10T07:42:58;95161.25;;;9.41;100.00
20622;BME280;10470;42.670;23.354;2023-05-10T07:45:44;95163.69;;;9.52;100.00
20622;BME280;10470;42.670;23.354;2023-05-10T07:48:30;95171.22;;;9.61;100.00
20622;BME280;10470;42.670;23.354;2023-05-10T07:51:16;95154.44;;;9.50;100.00
20622;BME280;10470;42.670;23.354;2023-05-10T07:54:01;95158.91;;;9.56;100.00
20622;BME280;10470;42.670;23.354;2023-05-10T07:56:47;95163.13;;;9.45;100.00
20622;BME280;10470;42.670;23.354;2023-05-10T07:59:33;95167.06;;;9.56;100.00
20622;BME280;10470;42.670;23.354;2023-05-10T08:02:18;95164.56;;;9.62;100.00
20622;BME280;10470;42.670;23.354;2023-05-10T08:05:04;95174.47;;;9.56;100.00
20622;BME280;10470;42.670;23.354;2023-05-10T08:07:50;95175.00;;;9.51;100.00
20622;BME280;10470;42.670;23.354;2023-05-10T08:10:36;95170.56;;;9.70;100.00
20622;BME280;10470;42.670;23.354;2023-05-10T08:13:21;95165.31;;;9.50;100.00
20622;BME280;10470;42.670;23.354;2023-05-10T08:16:07;95173.22;;;9.73;100.00
20622;BME280;10470;42.670;23.354;2023-05-10T08:18:52;95173.09;;;9.77;100.00
20622;BME280;10470;42.670;23.354;2023-05-10T08:21:40;95170.25;;;9.68;100.00
20622;BME280;10470;42.670;23.354;2023-05-10T08:24:27;95175.63;;;9.84;100.00
20622;BME280;10470;42.670;23.354;2023-05-10T08:27:12;95176.91;;;9.79;100.00
20622;BME280;10470;42.670;23.354;2023-05-10T08:29:57;95172.97;;;9.80;100.00
20622;BME280;10470;42.670;23.354;2023-05-10T08:32:43;95173.88;;;9.90;100.00
20622;BME280;10470;42.670;23.354;2023-05-10T08:35:28;95184.56;;;9.97;100.00
20622;BME280;10470;42.670;23.354;2023-05-10T08:38:14;95189.44;;;9.77;100.00
20622;BME280;10470;42.670;23.354;2023-05-10T08:41:02;95181.91;;;9.68;100.00
20622;BME280;10470;42.670;23.354;2023-05-10T08:43:47;95173.50;;;9.62;100.00
20622;BME280;10470;42.670;23.354;2023-05-10T08:46:33;95189.44;;;9.77;100.00
20622;BME280;10470;42.670;23.354;2023-05-10T08:49:24;95171.88;;;9.65;100.00
20622;BME280;10470;42.670;23.354;2023-05-10T08:52:13;95167.09;;;9.69;100.00
20622;BME280;10470;42.670;23.354;2023-05-10T08:55:00;95179.28;;;9.77;100.00
20622;BME280;10470;42.670;23.354;2023-05-10T08:57:46;95181.91;;;9.68;100.00
20622;BME280;10470;42.670;23.354;2023-05-10T09:00:32;95173.41;;;9.66;100.00
20622;BME280;10470;42.670;23.354;2023-05-10T09:03:18;95179.66;;;9.92;100.00
20622;BME280;10470;42.670;23.354;2023-05-10T09:06:03;95177.13;;;9.85;100.00
20622;BME280;10470;42.670;23.354;2023-05-10T09:08:50;95157.19;;;9.75;100.00
20622;BME280;10470;42.670;23.354;2023-05-10T09:11:36;95174.66;;;10.03;100.00
20622;BME280;10470;42.670;23.354;2023-05-10T09:14:12;95178.69;;;9.99;100.00
20622;BME280;10470;42.670;23.354;2023-05-10T09:16:58;95189.91;;;10.14;100.00
20622;BME280;10470;42.670;23.354;2023-05-10T09:19:45;95177.84;;;10.15;100.00
20622;BME280;10470;42.670;23.354;2023-05-10T09:22:31;95171.91;;;10.33;100.00
20622;BME280;10470;42.670;23.354;2023-05-10T09:25:16;95173.91;;;10.16;100.00
20622;BME280;10470;42.670;23.354;2023-05-10T09:28:06;95179.06;;;10.39;100.00
20622;BME280;10470;42.670;23.354;2023-05-10T09:30:53;95166.28;;;10.23;100.00
20622;BME280;10470;42.670;23.354;2023-05-10T09:33:48;95174.03;;;10.25;100.00
20622;BME280;10470;42.670;23.354;2023-05-10T09:36:34;95167.19;;;10.33;100.00
20622;BME280;10470;42.670;23.354;2023-05-10T09:39:20;95167.09;;;10.49;100.00
20622;BME280;10470;42.670;23.354;2023-05-10T09:42:07;95167.53;;;10.35;100.00
20622;BME280;10470;42.670;23.354;2023-05-10T09:44:53;95158.22;;;10.58;100.00
20622;BME280;10470;42.670;23.354;2023-05-10T09:47:39;95161.22;;;10.51;100.00
20622;BME280;10470;42.670;23.354;2023-05-10T09:50:25;95156.19;;;10.49;100.00
20622;BME280;10470;42.670;23.354;2023-05-10T09:53:14;95159.78;;;10.59;100.00
20622;BME280;10470;42.670;23.354;2023-05-10T09:55:59;95155.63;;;10.16;100.00
20622;BME280;10470;42.670;23.354;2023-05-10T09:58:45;95154.13;;;10.41;100.00
20622;BME280;10470;42.670;23.354;2023-05-10T10:01:30;95141.13;;;10.45;100.00
20622;BME280;10470;42.670;23.354;2023-05-10T10:04:16;95154.47;;;10.30;100.00
20622;BME280;10470;42.670;23.354;2023-05-10T10:07:03;95143.31;;;10.50;100.00
20622;BME280;10470;42.670;23.354;2023-05-10T10:09:49;95158.16;;;10.49;100.00
20622;BME280;10470;42.670;23.354;2023-05-10T10:12:35;95151.47;;;10.63;100.00
20622;BME280;10470;42.670;23.354;2023-05-10T10:15:21;95145.25;;;10.75;100.00
20622;BME280;10470;42.670;23.354;2023-05-10T10:18:07;95140.69;;;10.72;100.00
20622;BME280;10470;42.670;23.354;2023-05-10T10:20:57;95135.28;;;10.94;100.00
20622;BME280;10470;42.670;23.354;2023-05-10T10:23:43;95135.13;;;10.63;100.00
20622;BME280;10470;42.670;23.354;2023-05-10T10:26:21;95151.19;;;10.96;100.00
20622;BME280;10470;42.670;23.354;2023-05-10T10:35:45;95137.81;;;10.88;100.00
20622;BME280;10470;42.670;23.354;2023-05-10T10:38:42;95137.81;;;10.88;100.00
20622;BME280;10470;42.670;23.354;2023-05-10T10:41:57;95144.16;;;11.07;100.00
20622;BME280;10470;42.670;23.354;2023-05-10T10:44:42;95136.09;;;10.82;100.00
20622;BME280;10470;42.670;23.354;2023-05-10T10:47:28;95137.84;;;11.10;100.00
20622;BME280;10470;42.670;23.354;2023-05-10T10:50:16;95151.16;;;11.08;100.00
20622;BME280;10470;42.670;23.354;2023-05-10T10:53:10;95154.59;;;11.44;100.00
20622;BME280;10470;42.670;23.354;2023-05-10T10:58:59;95147.38;;;11.28;100.00
20622;BME280;10470;42.670;23.354;2023-05-10T11:01:35;95151.13;;;11.21;100.00
20622;BME280;10470;42.670;23.354;2023-05-10T11:04:21;95151.81;;;11.34;100.00
20622;BME280;10470;42.670;23.354;2023-05-10T11:07:16;95156.16;;;11.10;100.00
20622;BME280;10470;42.670;23.354;2023-05-10T11:10:06;95137.59;;;11.18;100.00
20622;BME280;10470;42.670;23.354;2023-05-10T11:13:01;95144.91;;;11.43;100.00
20622;BME280;10470;42.670;23.354;2023-05-10T11:15:48;95149.22;;;11.31;100.00
20622;BME280;10470;42.670;23.354;2023-05-10T11:18:28;95139.94;;;11.28;100.00
20622;BME280;10470;42.670;23.354;2023-05-10T11:21:10;95136.47;;;11.28;100.00
20622;BME280;10470;42.670;23.354;2023-05-10T11:23:56;95144.59;;;11.19;100.00
20622;BME280;10470;42.670;23.354;2023-05-10T11:26:43;95152.19;;;11.24;100.00
20622;BME280;10470;42.670;23.354;2023-05-10T11:29:28;95144.22;;;11.29;100.00
20622;BME280;10470;42.670;23.354;2023-05-10T11:32:14;95143.00;;;11.74;100.00
20622;BME280;10470;42.670;23.354;2023-05-10T11:34:59;95157.75;;;11.55;100.00
20622;BME280;10470;42.670;23.354;2023-05-10T11:37:48;95156.00;;;11.48;100.00
20622;BME280;10470;42.670;23.354;2023-05-10T11:40:34;95154.16;;;11.23;100.00
20622;BME280;10470;42.670;23.354;2023-05-10T11:43:23;95151.81;;;11.56;100.00
20622;BME280;10470;42.670;23.354;2023-05-10T11:46:13;95150.38;;;11.21;100.00
20622;BME280;10470;42.670;23.354;2023-05-10T11:48:57;95141.16;;;11.27;100.00
20622;BME280;10470;42.670;23.354;2023-05-10T11:51:43;95139.44;;;11.21;100.00
20622;BME280;10470;42.670;23.354;2023-05-10T11:54:29;95144.53;;;11.31;100.00
20622;BME280;10470;42.670;23.354;2023-05-10T11:57:14;95146.34;;;11.12;100.00
20622;BME280;10470;42.670;23.354;2023-05-10T12:00:00;95144.44;;;11.22;100.00
20622;BME280;10470;42.670;23.354;2023-05-10T12:02:46;95139.41;;;10.99;100.00
20622;BME280;10470;42.670;23.354;2023-05-10T12:05:32;95136.53;;;11.37;100.00
20622;BME280;10470;42.670;23.354;2023-05-10T12:08:23;95139.25;;;11.37;100.00
20622;BME280;10470;42.670;23.354;2023-05-10T12:11:09;95116.72;;;11.46;100.00
20622;BME280;10470;42.670;23.354;2023-05-10T12:13:58;95132.41;;;11.10;100.00
20622;BME280;10470;42.670;23.354;2023-05-10T12:16:44;95128.66;;;11.17;100.00
20622;BME280;10470;42.670;23.354;2023-05-10T12:19:36;95124.66;;;11.31;100.00
20622;BME280;10470;42.670;23.354;2023-05-10T12:22:20;95130.38;;;11.46;100.00
20622;BME280;10470;42.670;23.354;2023-05-10T12:25:08;95118.44;;;11.30;100.00
20622;BME280;10470;42.670;23.354;2023-05-10T12:27:55;95120.16;;;11.59;100.00
20622;BME280;10470;42.670;23.354;2023-05-10T12:30:41;95123.84;;;11.43;100.00
20622;BME280;10470;42.670;23.354;2023-05-10T12:33:26;95117.63;;;11.21;100.00
20622;BME280;10470;42.670;23.354;2023-05-10T12:36:13;95125.53;;;11.28;100.00
20622;BME280;10470;42.670;23.354;2023-05-10T12:39:02;95115.53;;;11.47;100.00
20622;BME280;10470;42.670;23.354;2023-05-10T12:41:40;95119.72;;;11.61;100.00
20622;BME280;10470;42.670;23.354;2023-05-10T12:44:26;95115.25;;;11.76;100.00
20622;BME280;10470;42.670;23.354;2023-05-10T12:47:11;95114.34;;;11.79;100.00
20622;BME280;10470;42.670;23.354;2023-05-10T12:49:57;95102.91;;;11.40;100.00
20622;BME280;10470;42.670;23.354;2023-05-10T12:52:42;95108.53;;;11.46;100.00
20622;BME280;10470;42.670;23.354;2023-05-10T12:55:27;95103.03;;;11.36;100.00
20622;BME280;10470;42.670;23.354;2023-05-10T12:58:13;95095.66;;;11.68;100.00
20622;BME280;10470;42.670;23.354;2023-05-10T13:00:59;95101.31;;;11.52;100.00
20622;BME280;10470;42.670;23.354;2023-05-10T13:03:45;95085.53;;;11.47;100.00
20622;BME280;10470;42.670;23.354;2023-05-10T13:06:30;95097.81;;;11.73;100.00
20622;BME280;10470;42.670;23.354;2023-05-10T13:09:17;95098.19;;;11.63;100.00
20622;BME280;10470;42.670;23.354;2023-05-10T13:12:02;95092.19;;;11.77;100.00
20622;BME280;10470;42.670;23.354;2023-05-10T13:14:48;95093.63;;;11.59;100.00
20622;BME280;10470;42.670;23.354;2023-05-10T13:17:33;95089.47;;;11.77;100.00
20622;BME280;10470;42.670;23.354;2023-05-10T13:20:19;95088.84;;;11.73;100.00
20622;BME280;10470;42.670;23.354;2023-05-10T13:23:04;95076.00;;;11.29;100.00
20622;BME280;10470;42.670;23.354;2023-05-10T13:25:50;95077.94;;;11.51;100.00
20622;BME280;10470;42.670;23.354;2023-05-10T13:28:35;95077.44;;;11.43;100.00
20622;BME280;10470;42.670;23.354;2023-05-10T13:31:21;95079.78;;;11.76;100.00
20622;BME280;10470;42.670;23.354;2023-05-10T13:34:06;95081.50;;;11.61;100.00
20622;BME280;10470;42.670;23.354;2023-05-10T13:36:52;95061.34;;;11.36;100.00
20622;BME280;10470;42.670;23.354;2023-05-10T13:39:38;95071.03;;;11.59;100.00
20622;BME280;10470;42.670;23.354;2023-05-10T13:42:24;95070.81;;;11.75;100.00
20622;BME280;10470;42.670;23.354;2023-05-10T13:45:06;95072.25;;;11.58;100.00
20622;BME280;10470;42.670;23.354;2023-05-10T13:47:51;95059.66;;;11.61;100.00
20622;BME280;10470;42.670;23.354;2023-05-10T13:50:37;95070.41;;;11.55;100.00
20622;BME280;10470;42.670;23.354;2023-05-10T13:53:23;95061.34;;;11.67;100.00
20622;BME280;10470;42.670;23.354;2023-05-10T13:56:09;95062.13;;;11.68;100.00
20622;BME280;10470;42.670;23.354;2023-05-10T13:58:45;95070.69;;;11.79;100.00
20622;BME280;10470;42.670;23.354;2023-05-10T14:01:30;95066.94;;;11.54;100.00
20622;BME280;10470;42.670;23.354;2023-05-10T14:04:16;95058.28;;;11.56;100.00
20622;BME280;10470;42.670;23.354;2023-05-10T14:07:02;95063.56;;;11.81;100.00
20622;BME280;10470;42.670;23.354;2023-05-10T14:09:47;95060.50;;;11.48;100.00
20622;BME280;10470;42.670;23.354;2023-05-10T14:12:20;95068.69;;;11.48;100.00
20622;BME280;10470;42.670;23.354;2023-05-10T14:15:06;95070.59;;;11.61;100.00
20622;BME280;10470;42.670;23.354;2023-05-10T14:17:51;95048.28;;;11.31;100.00
20622;BME280;10470;42.670;23.354;2023-05-10T14:20:37;95072.38;;;11.54;100.00
20622;BME280;10470;42.670;23.354;2023-05-10T14:23:22;95062.69;;;11.31;100.00
20622;BME280;10470;42.670;23.354;2023-05-10T14:26:11;95072.50;;;11.51;100.00
20622;BME280;10470;42.670;23.354;2023-05-10T14:28:56;95071.59;;;11.54;100.00
20622;BME280;10470;42.670;23.354;2023-05-10T14:31:42;95068.75;;;11.57;100.00
20622;BME280;10470;42.670;23.354;2023-05-10T14:34:27;95064.22;;;11.32;100.00
20622;BME280;10470;42.670;23.354;2023-05-10T14:37:13;95068.66;;;11.39;100.00
20622;BME280;10470;42.670;23.354;2023-05-10T14:39:58;95061.91;;;11.53;100.00
20622;BME280;10470;42.670;23.354;2023-05-10T14:42:44;95064.38;;;11.60;100.00
20622;BME280;10470;42.670;23.354;2023-05-10T14:45:30;95062.22;;;11.55;100.00
20622;BME280;10470;42.670;23.354;2023-05-10T14:48:15;95063.13;;;11.52;100.00
20622;BME280;10470;42.670;23.354;2023-05-10T14:51:02;95066.69;;;11.71;100.00